Flores (flores Isl.), Flores Airport (LPFL)

NameFlores Airport
CityFlores (flores Isl.)
CountryPortugal
ICAOLPFL
IATAFLW
Altitude34 m
CoordinatesGoogle Map
Live Air TrafficLiveATC.net
METARLPFL 231400Z 12005KT 050V200 9999 FEW008 SCT014 19/18 Q1012
2019-10-23 14:00:00 Wind: East-Southeast (120°) 2.57 m/s - Visibility: > 10000 m - Temperature: 19 °C - Dew point: 18 °C - Humidity: 94% - Pressure: 1012 hPa

Sorry, no flights used the airport in this database.